Terminal Aerodrome Forecast
Issued by NWS Mt. Holly, NJ

Home | Current Version | Previous Version | Text Only | Print | Product List | Glossary On
Versions: 1 2 3 4 5 6 7 8 9 10 11 12 13 14 15 16 17 18 19 20 21 22 23 24 25 26 27 28 29 30 31 32 33 34 35 36
000
FTUS41 KPHI 252350
TAFABE
TAF
KABE 252350Z 2600/2624 20005KT P6SM FEW040
     FM260200 VRB02KT P6SM SCT070
      TEMPO 2607/2611 4SM -SHRA BR BKN035
     FM261300 31008KT P6SM SCT030=

USA.gov is the U.S. government's official web portal to all federal, state and local government web resources and services.